createdAt,value
2023-03-20T00:01:03.698Z,9.21
2023-03-20T00:03:29.913Z,9.01
2023-03-20T00:05:56.137Z,9.03
2023-03-20T00:08:22.354Z,9.09
2023-03-20T00:10:48.558Z,8.81
2023-03-20T00:13:15.942Z,9.03
2023-03-20T00:15:42.415Z,9.02
2023-03-20T00:18:15.897Z,8.86
2023-03-20T00:20:42.109Z,9.08
2023-03-20T00:23:08.374Z,9.05
2023-03-20T00:25:34.898Z,9.01
2023-03-20T00:28:01.268Z,8.92
2023-03-20T00:30:28.724Z,8.76
2023-03-20T00:32:55.678Z,8.63
2023-03-20T00:35:23.125Z,8.55
2023-03-20T00:37:49.542Z,8.53
2023-03-20T00:40:15.872Z,8.48
2023-03-20T00:42:42.420Z,8.49
2023-03-20T00:45:11.808Z,8.48
2023-03-20T00:47:38.020Z,8.50
2023-03-20T00:50:06.705Z,8.46
2023-03-20T00:52:32.931Z,8.42
2023-03-20T00:54:59.137Z,8.44
2023-03-20T00:57:29.622Z,8.44
2023-03-20T00:59:59.702Z,8.40
2023-03-20T01:02:26.416Z,8.38
2023-03-20T01:04:52.635Z,8.44
2023-03-20T01:07:18.849Z,8.44
2023-03-20T01:09:45.047Z,8.42
2023-03-20T01:12:11.686Z,8.43
2023-03-20T01:14:37.902Z,8.43
2023-03-20T01:17:04.120Z,8.43
2023-03-20T01:19:30.312Z,8.44
2023-03-20T01:21:56.533Z,8.43
2023-03-20T01:24:22.741Z,8.45
2023-03-20T01:26:48.945Z,8.45
2023-03-20T01:29:19.180Z,8.45
2023-03-20T01:31:45.490Z,8.49
2023-03-20T01:34:11.766Z,8.47
2023-03-20T01:36:38.064Z,8.58
2023-03-20T01:39:04.286Z,8.52
2023-03-20T01:41:30.504Z,8.52
2023-03-20T01:43:56.724Z,8.50
2023-03-20T01:46:23.810Z,8.47
2023-03-20T01:48:49.988Z,8.49
2023-03-20T01:51:25.788Z,8.47
2023-03-20T01:53:57.628Z,8.52
2023-03-20T01:56:23.864Z,8.42
2023-03-20T01:58:51.285Z,8.45
2023-03-20T02:01:17.539Z,8.42
2023-03-20T02:03:44.226Z,8.43
2023-03-20T02:06:10.432Z,8.40
2023-03-20T02:08:36.898Z,8.40
2023-03-20T02:11:03.151Z,8.36
2023-03-20T02:13:29.632Z,8.33
2023-03-20T02:15:57.036Z,8.35
2023-03-20T02:18:23.346Z,8.33
2023-03-20T02:21:06.798Z,8.32
2023-03-20T02:23:38.364Z,8.37
2023-03-20T02:26:16.834Z,8.33
2023-03-20T02:28:51.440Z,8.29
2023-03-20T02:31:41.109Z,8.27
2023-03-20T02:34:24.226Z,8.23
2023-03-20T02:36:53.548Z,8.18
2023-03-20T02:39:19.718Z,8.14
2023-03-20T02:41:48.638Z,8.15
2023-03-20T02:44:19.541Z,8.19
2023-03-20T02:46:53.045Z,8.11
2023-03-20T02:49:22.310Z,8.18
2023-03-20T02:52:02.180Z,8.13
2023-03-20T02:54:30.854Z,8.16
2023-03-20T02:57:03.999Z,8.08
2023-03-20T02:59:32.239Z,8.07
2023-03-20T03:02:05.933Z,8.08
2023-03-20T03:04:33.321Z,8.08
2023-03-20T03:06:59.555Z,8.06
2023-03-20T03:09:27.558Z,8.06
2023-03-20T03:11:54.954Z,8.07
2023-03-20T03:14:29.481Z,8.11
2023-03-20T03:16:55.674Z,8.12
2023-03-20T03:19:23.006Z,8.07
2023-03-20T03:21:49.228Z,8.08
2023-03-20T03:24:26.743Z,8.10
2023-03-20T03:26:59.762Z,8.10
2023-03-20T03:29:26.212Z,8.09
2023-03-20T03:31:52.424Z,8.09
2023-03-20T03:34:18.624Z,8.08
2023-03-20T03:36:47.864Z,8.08
2023-03-20T03:39:14.036Z,8.09
2023-03-20T03:41:41.139Z,8.09
2023-03-20T03:44:07.297Z,8.08
2023-03-20T03:46:39.176Z,8.10
2023-03-20T03:49:05.376Z,8.10
2023-03-20T03:51:31.923Z,8.10
2023-03-20T03:54:09.004Z,8.12
2023-03-20T03:56:35.307Z,8.10
2023-03-20T03:59:02.355Z,8.10
2023-03-20T04:01:28.697Z,8.12
2023-03-20T04:03:56.421Z,8.14
2023-03-20T04:06:22.636Z,8.12
2023-03-20T04:08:48.845Z,8.13
2023-03-20T04:11:19.176Z,8.12
2023-03-20T04:13:49.024Z,8.09
2023-03-20T04:16:15.545Z,8.08
2023-03-20T04:18:41.787Z,8.09
2023-03-20T04:21:08.046Z,8.04
2023-03-20T04:23:34.304Z,8.06
2023-03-20T04:26:00.535Z,8.05
2023-03-20T04:28:26.740Z,8.11
2023-03-20T04:30:56.578Z,8.07
2023-03-20T04:33:23.131Z,8.08
2023-03-20T04:35:49.429Z,8.06
2023-03-20T04:38:15.726Z,8.07
2023-03-20T04:40:41.932Z,8.07
2023-03-20T04:43:08.130Z,8.07
2023-03-20T04:45:34.626Z,8.09
2023-03-20T04:48:01.047Z,8.06
2023-03-20T04:50:27.269Z,8.10
2023-03-20T04:52:53.494Z,8.10
2023-03-20T04:55:19.702Z,8.07
2023-03-20T04:57:45.925Z,8.07
2023-03-20T05:00:12.317Z,8.07
2023-03-20T05:02:38.519Z,8.08
2023-03-20T05:05:04.883Z,8.08
2023-03-20T05:07:31.113Z,8.08
2023-03-20T05:09:57.326Z,8.07
2023-03-20T05:12:23.539Z,8.07
2023-03-20T05:14:49.747Z,8.09
2023-03-20T05:17:16.122Z,8.08
2023-03-20T05:19:42.319Z,8.06
2023-03-20T05:22:08.546Z,8.07
2023-03-20T05:24:34.761Z,8.06
2023-03-20T05:27:00.975Z,8.07
2023-03-20T05:29:27.174Z,8.17
2023-03-20T05:31:53.376Z,8.10
2023-03-20T05:34:19.626Z,8.09
2023-03-20T05:36:45.829Z,8.06
2023-03-20T05:39:12.045Z,8.05
2023-03-20T05:41:38.307Z,8.01
2023-03-20T05:44:04.568Z,8.02
2023-03-20T05:46:30.845Z,8.04
2023-03-20T05:48:57.100Z,7.96
2023-03-20T05:51:23.294Z,7.99
2023-03-20T05:53:49.516Z,8.03
2023-03-20T05:56:15.711Z,7.99
2023-03-20T05:58:43.625Z,8.04
2023-03-20T06:01:09.839Z,8.04
2023-03-20T06:03:36.088Z,8.03
2023-03-20T06:06:02.616Z,8.04
2023-03-20T06:08:28.826Z,8.06
2023-03-20T06:10:55.018Z,8.10
2023-03-20T06:13:21.218Z,8.17
2023-03-20T06:15:47.477Z,8.22
2023-03-20T06:18:13.702Z,8.32
2023-03-20T06:20:39.901Z,8.34
2023-03-20T06:23:06.116Z,8.40
2023-03-20T06:25:32.392Z,8.35
2023-03-20T06:27:58.610Z,8.41
2023-03-20T06:30:24.805Z,8.45
2023-03-20T06:32:51.056Z,8.45
2023-03-20T06:35:17.274Z,8.52
2023-03-20T06:37:43.479Z,8.49
2023-03-20T06:40:09.918Z,8.45
2023-03-20T06:42:36.137Z,8.49
2023-03-20T06:45:02.350Z,8.50
2023-03-20T06:47:28.564Z,8.50
2023-03-20T06:49:54.780Z,8.48
2023-03-20T06:52:20.975Z,8.37
2023-03-20T06:54:47.195Z,8.43
2023-03-20T06:57:15.293Z,8.31
2023-03-20T06:59:41.657Z,8.35
2023-03-20T07:02:07.890Z,8.27
2023-03-20T07:04:34.162Z,8.30
2023-03-20T07:07:00.390Z,8.17
2023-03-20T07:09:26.639Z,8.11
2023-03-20T07:11:52.839Z,8.13
2023-03-20T07:14:19.038Z,8.09
2023-03-20T07:16:45.310Z,8.06
2023-03-20T07:19:11.550Z,8.04
2023-03-20T07:21:37.786Z,8.09
2023-03-20T07:24:04.026Z,8.05
2023-03-20T07:26:30.231Z,8.00
2023-03-20T07:28:56.463Z,8.06
2023-03-20T07:31:26.532Z,8.04
2023-03-20T07:33:52.781Z,8.03
2023-03-20T07:36:18.990Z,7.95
2023-03-20T07:38:45.208Z,7.90
2023-03-20T07:41:11.442Z,7.92
2023-03-20T07:43:37.892Z,7.91
2023-03-20T07:46:04.734Z,7.94
2023-03-20T07:48:30.999Z,7.83
2023-03-20T07:50:57.208Z,7.89
2023-03-20T07:53:23.437Z,7.88
2023-03-20T07:55:49.641Z,7.94
2023-03-20T07:58:15.856Z,7.91
2023-03-20T08:00:42.067Z,7.94
2023-03-20T08:03:08.393Z,7.89
2023-03-20T08:05:34.827Z,7.92
2023-03-20T08:08:01.346Z,7.94
2023-03-20T08:10:27.727Z,7.93
2023-03-20T08:12:54.019Z,7.88
2023-03-20T08:15:20.244Z,7.93
2023-03-20T08:17:46.453Z,7.89
2023-03-20T08:20:13.116Z,7.84
2023-03-20T08:22:39.320Z,7.88
2023-03-20T08:25:05.748Z,7.83
2023-03-20T08:27:31.961Z,7.83
2023-03-20T08:29:58.188Z,7.81
2023-03-20T08:32:24.381Z,7.88
2023-03-20T08:34:50.588Z,8.02
2023-03-20T08:37:16.887Z,8.12
2023-03-20T08:39:43.090Z,8.25
2023-03-20T08:42:09.290Z,8.25
2023-03-20T08:44:35.502Z,8.18
2023-03-20T08:47:01.714Z,8.24
2023-03-20T08:49:27.972Z,8.20
2023-03-20T08:51:54.203Z,8.09
2023-03-20T08:54:20.406Z,8.17
2023-03-20T08:56:46.616Z,8.20
2023-03-20T08:59:12.833Z,8.15
2023-03-20T09:01:49.253Z,8.23
2023-03-20T09:04:16.501Z,8.22
2023-03-20T09:06:42.711Z,8.26
2023-03-20T09:09:08.930Z,8.42
2023-03-20T09:11:35.139Z,8.34
2023-03-20T09:14:01.354Z,8.40
2023-03-20T09:16:27.612Z,8.47
2023-03-20T09:18:53.879Z,8.55
2023-03-20T09:21:20.089Z,8.58
2023-03-20T09:23:46.295Z,8.63
2023-03-20T09:26:12.516Z,8.77
2023-03-20T09:28:38.716Z,8.90
2023-03-20T09:31:05.036Z,8.83
2023-03-20T09:33:31.268Z,8.87
2023-03-20T09:35:57.505Z,8.86
2023-03-20T09:38:23.748Z,8.74
2023-03-20T09:40:56.815Z,8.83
2023-03-20T09:43:26.938Z,8.80
2023-03-20T09:46:15.024Z,8.85
2023-03-20T09:48:44.168Z,8.87
2023-03-20T09:51:14.526Z,8.88
2023-03-20T09:53:41.055Z,8.92
2023-03-20T09:56:10.613Z,8.97
2023-03-20T09:58:36.822Z,8.95
2023-03-20T10:01:03.873Z,8.88
2023-03-20T10:03:42.385Z,9.01
2023-03-20T10:06:12.357Z,9.09
2023-03-20T10:08:38.576Z,9.02
2023-03-20T10:11:06.730Z,9.12
2023-03-20T10:13:51.235Z,9.13
2023-03-20T10:16:36.919Z,9.18
2023-03-20T10:19:05.982Z,9.40
2023-03-20T10:21:45.080Z,9.22
2023-03-20T10:24:14.558Z,9.07
2023-03-20T10:26:40.770Z,9.05
2023-03-20T10:29:25.714Z,9.01
2023-03-20T10:32:01.644Z,8.96
2023-03-20T10:34:48.574Z,8.93
2023-03-20T10:37:28.666Z,9.11
2023-03-20T10:40:04.588Z,9.35
2023-03-20T10:42:32.416Z,9.24
2023-03-20T10:44:59.440Z,9.28
2023-03-20T10:47:26.798Z,9.22
2023-03-20T10:49:54.319Z,9.38
2023-03-20T10:52:22.449Z,9.37
2023-03-20T10:54:49.898Z,9.22
2023-03-20T10:57:18.271Z,9.21
2023-03-20T10:59:45.078Z,9.32
2023-03-20T11:02:11.574Z,9.43
2023-03-20T11:04:37.963Z,9.27
2023-03-20T11:07:12.017Z,9.30
2023-03-20T11:09:38.249Z,9.28
2023-03-20T11:12:04.467Z,9.31
2023-03-20T11:14:37.473Z,9.27
2023-03-20T11:17:04.010Z,9.34
2023-03-20T11:19:34.089Z,9.21
2023-03-20T11:22:00.934Z,9.10
2023-03-20T11:24:33.401Z,9.01
2023-03-20T11:27:06.416Z,9.09
2023-03-20T11:29:32.612Z,9.12
2023-03-20T11:32:14.394Z,9.23
2023-03-20T11:34:40.634Z,9.41
2023-03-20T11:37:10.425Z,9.74
2023-03-20T11:39:37.091Z,9.43
2023-03-20T11:42:03.312Z,9.25
2023-03-20T11:44:33.330Z,9.28
2023-03-20T11:47:00.551Z,9.23
2023-03-20T11:49:26.870Z,9.27
2023-03-20T11:51:53.154Z,9.21
2023-03-20T11:54:20.581Z,9.24
2023-03-20T11:56:54.254Z,9.19
2023-03-20T11:59:20.469Z,9.06
2023-03-20T12:01:47.575Z,8.90
2023-03-20T12:04:15.555Z,8.77
2023-03-20T12:06:46.417Z,8.76
2023-03-20T12:09:17.408Z,8.70
2023-03-20T12:11:45.590Z,8.71
2023-03-20T12:14:15.758Z,8.73
2023-03-20T12:16:41.950Z,8.64
2023-03-20T12:19:12.472Z,8.57
2023-03-20T12:21:38.628Z,8.62
2023-03-20T12:24:09.110Z,8.78
2023-03-20T12:26:36.138Z,8.96
2023-03-20T12:29:04.614Z,9.12
2023-03-20T12:31:49.728Z,9.32
2023-03-20T12:34:23.972Z,9.36
2023-03-20T12:36:50.615Z,9.43
2023-03-20T12:39:17.418Z,9.31
2023-03-20T12:41:46.576Z,9.12
2023-03-20T12:44:18.703Z,9.25
2023-03-20T12:46:51.508Z,9.23
2023-03-20T12:49:23.763Z,9.22
2023-03-20T12:51:55.950Z,9.11
2023-03-20T12:54:33.161Z,9.06
2023-03-20T12:57:04.923Z,8.94
2023-03-20T12:59:49.392Z,8.87
2023-03-20T13:02:18.673Z,8.86
2023-03-20T13:04:56.634Z,8.86
2023-03-20T13:07:27.921Z,8.87
2023-03-20T13:10:23.669Z,8.96
2023-03-20T13:12:52.608Z,8.92
2023-03-20T13:15:24.878Z,8.99
2023-03-20T13:17:59.946Z,9.11
2023-03-20T13:20:26.644Z,9.25
2023-03-20T13:23:02.297Z,9.35
2023-03-20T13:25:47.049Z,9.25
2023-03-20T13:28:19.028Z,9.25
2023-03-20T13:30:53.888Z,9.35
2023-03-20T13:33:38.492Z,9.30
2023-03-20T13:36:07.300Z,9.38
2023-03-20T13:38:34.194Z,9.31
2023-03-20T13:41:00.908Z,9.26
2023-03-20T13:43:28.660Z,9.20
2023-03-20T13:46:15.112Z,9.17
2023-03-20T13:48:41.874Z,8.95
2023-03-20T13:51:11.086Z,8.83
2023-03-20T13:53:55.929Z,8.82
2023-03-20T13:56:37.424Z,8.75
2023-03-20T13:59:03.635Z,8.76
2023-03-20T14:01:41.243Z,8.81
2023-03-20T14:04:14.672Z,8.90
2023-03-20T14:06:45.387Z,8.99
2023-03-20T14:09:26.659Z,9.09
2023-03-20T14:11:53.674Z,9.19
2023-03-20T14:14:24.117Z,9.28
2023-03-20T14:16:59.766Z,9.19
2023-03-20T14:19:25.970Z,9.12
2023-03-20T14:21:55.019Z,8.97
2023-03-20T14:24:21.323Z,8.88
2023-03-20T14:26:48.245Z,8.84
2023-03-20T14:29:14.402Z,8.80
2023-03-20T14:31:40.625Z,8.77
2023-03-20T14:34:12.831Z,8.88
2023-03-20T14:36:51.193Z,9.02
2023-03-20T14:39:22.660Z,9.12
2023-03-20T14:41:54.493Z,9.08
2023-03-20T14:44:26.769Z,9.02
2023-03-20T14:47:00.839Z,8.93
2023-03-20T14:49:29.820Z,8.77
2023-03-20T14:52:00.447Z,8.71
2023-03-20T14:54:30.009Z,8.73
2023-03-20T14:56:56.258Z,8.66
2023-03-20T14:59:23.006Z,8.62
2023-03-20T15:01:58.952Z,8.54
2023-03-20T15:04:35.811Z,8.56
2023-03-20T15:07:15.381Z,8.58
2023-03-20T15:09:42.636Z,8.65
2023-03-20T15:12:09.483Z,8.58
2023-03-20T15:14:45.880Z,8.54
2023-03-20T15:17:41.714Z,8.57
2023-03-20T15:20:12.913Z,8.56
2023-03-20T15:22:49.224Z,8.55
2023-03-20T15:25:16.639Z,8.60
2023-03-20T15:27:42.846Z,8.67
2023-03-20T15:30:09.932Z,8.67
2023-03-20T15:32:36.245Z,8.66
2023-03-20T15:35:03.750Z,8.69
2023-03-20T15:37:29.951Z,8.77
2023-03-20T15:39:56.187Z,8.78
2023-03-20T15:42:24.011Z,8.78
2023-03-20T15:44:51.586Z,8.73
2023-03-20T15:47:18.482Z,8.76
2023-03-20T15:49:48.187Z,8.79
2023-03-20T15:52:21.913Z,8.73
2023-03-20T15:54:48.332Z,8.67
2023-03-20T15:57:18.277Z,8.68
2023-03-20T15:59:44.486Z,8.68
2023-03-20T16:02:11.001Z,8.73
2023-03-20T16:04:37.278Z,8.70
2023-03-20T16:07:04.074Z,8.70
2023-03-20T16:09:30.288Z,8.70
2023-03-20T16:12:00.451Z,8.65
2023-03-20T16:14:27.510Z,8.51
2023-03-20T16:16:54.220Z,8.48
2023-03-20T16:19:20.450Z,8.42
2023-03-20T16:21:48.412Z,8.35
2023-03-20T16:24:18.791Z,8.32
2023-03-20T16:26:45.406Z,8.28
2023-03-20T16:29:13.254Z,8.28
2023-03-20T16:31:41.365Z,8.25
2023-03-20T16:34:08.344Z,8.24
2023-03-20T16:36:37.752Z,8.20
2023-03-20T16:39:03.906Z,8.16
2023-03-20T16:41:30.972Z,8.19
2023-03-20T16:43:57.195Z,8.14
2023-03-20T16:46:24.186Z,8.14
2023-03-20T16:48:51.402Z,8.17
2023-03-20T16:51:20.289Z,8.13
2023-03-20T16:53:47.277Z,8.14
2023-03-20T16:56:14.302Z,8.14
2023-03-20T16:58:40.518Z,8.13
2023-03-20T17:01:07.508Z,8.10
2023-03-20T17:03:42.789Z,8.09
2023-03-20T17:06:21.123Z,8.11
2023-03-20T17:08:50.918Z,8.14
2023-03-20T17:11:23.284Z,8.13
2023-03-20T17:13:49.504Z,8.12
2023-03-20T17:16:16.653Z,8.13
2023-03-20T17:18:44.457Z,8.14
2023-03-20T17:21:10.669Z,8.12
2023-03-20T17:23:36.879Z,8.13
2023-03-20T17:26:03.092Z,8.13
2023-03-20T17:28:31.298Z,8.14
2023-03-20T17:30:57.508Z,8.14
2023-03-20T17:33:23.733Z,8.18
2023-03-20T17:35:49.975Z,8.18
2023-03-20T17:38:17.063Z,8.23
2023-03-20T17:40:43.291Z,8.18
2023-03-20T17:43:10.600Z,8.16
2023-03-20T17:45:36.845Z,8.11
2023-03-20T17:48:03.120Z,8.10
2023-03-20T17:50:29.342Z,8.10
2023-03-20T17:52:55.554Z,8.09
2023-03-20T17:55:21.943Z,8.07
2023-03-20T17:57:48.257Z,8.10
2023-03-20T18:00:21.840Z,8.08
2023-03-20T18:02:48.096Z,8.08
2023-03-20T18:05:14.332Z,8.04
2023-03-20T18:07:40.562Z,8.00
2023-03-20T18:10:06.973Z,8.01
2023-03-20T18:12:33.183Z,8.02
2023-03-20T18:14:59.401Z,8.01
2023-03-20T18:17:25.607Z,8.01
2023-03-20T18:19:51.836Z,8.00
2023-03-20T18:22:18.081Z,7.99
2023-03-20T18:24:45.642Z,8.00
2023-03-20T18:27:11.939Z,7.99
2023-03-20T18:29:38.146Z,7.98
2023-03-20T18:32:04.388Z,7.96
2023-03-20T18:34:30.606Z,7.96
2023-03-20T18:36:56.816Z,7.95
2023-03-20T18:39:23.619Z,7.99
2023-03-20T18:41:50.036Z,7.97
2023-03-20T18:44:16.480Z,7.97
2023-03-20T18:46:42.752Z,7.94
2023-03-20T18:49:13.708Z,7.94
2023-03-20T18:51:39.908Z,7.95
2023-03-20T18:54:06.121Z,7.93
2023-03-20T18:56:32.340Z,7.92
2023-03-20T18:58:58.551Z,7.96
2023-03-20T19:01:24.791Z,7.95
2023-03-20T19:03:51.019Z,7.93
2023-03-20T19:06:18.308Z,7.92
2023-03-20T19:08:44.667Z,7.92
2023-03-20T19:11:10.870Z,7.91
2023-03-20T19:13:37.243Z,7.91
2023-03-20T19:16:03.556Z,7.91
2023-03-20T19:18:29.778Z,7.89
2023-03-20T19:20:56.527Z,7.88
2023-03-20T19:23:23.408Z,7.88
2023-03-20T19:25:50.371Z,7.87
2023-03-20T19:28:21.962Z,7.88
2023-03-20T19:30:50.083Z,7.87
2023-03-20T19:33:16.301Z,7.86
2023-03-20T19:36:11.358Z,7.89
2023-03-20T19:38:28.714Z,7.87
2023-03-20T19:40:54.938Z,7.85
2023-03-20T19:43:21.380Z,7.87
2023-03-20T19:45:47.607Z,7.83
2023-03-20T19:48:15.342Z,7.81
2023-03-20T19:50:43.709Z,7.83
2023-03-20T19:53:10.470Z,7.80
2023-03-20T19:55:37.347Z,7.74
2023-03-20T19:58:03.964Z,7.72
2023-03-20T20:01:00.389Z,7.65
2023-03-20T20:03:23.500Z,7.63
2023-03-20T20:05:49.765Z,7.60
2023-03-20T20:08:31.020Z,7.57
2023-03-20T20:11:02.468Z,7.54
2023-03-20T20:13:29.440Z,7.55
2023-03-20T20:15:55.678Z,7.51
2023-03-20T20:18:22.299Z,7.43
2023-03-20T20:21:31.967Z,7.48
2023-03-20T20:23:34.755Z,7.45
2023-03-20T20:26:00.968Z,7.47
2023-03-20T20:28:27.296Z,7.44
2023-03-20T20:30:54.415Z,7.45
2023-03-20T20:33:20.666Z,7.42
2023-03-20T20:36:19.999Z,7.38
2023-03-20T20:38:49.502Z,7.32
2023-03-20T20:41:16.521Z,7.32
2023-03-20T20:44:14.189Z,7.31
2023-03-20T20:46:28.960Z,7.35
2023-03-20T20:48:55.193Z,7.35
2023-03-20T20:51:21.409Z,7.33
2023-03-20T20:53:47.604Z,7.33
2023-03-20T20:56:13.830Z,7.36
2023-03-20T20:58:40.059Z,7.36
2023-03-20T21:01:06.348Z,7.39
2023-03-20T21:03:32.582Z,7.38
2023-03-20T21:06:03.292Z,7.39
2023-03-20T21:08:30.075Z,7.42
2023-03-20T21:10:56.337Z,7.39
2023-03-20T21:13:22.550Z,7.41
2023-03-20T21:15:56.347Z,7.43
2023-03-20T21:18:22.588Z,7.41
2023-03-20T21:20:48.792Z,7.39
2023-03-20T21:23:15.004Z,7.38
2023-03-20T21:25:43.584Z,7.39
2023-03-20T21:28:11.800Z,7.41
2023-03-20T21:31:12.433Z,7.47
2023-03-20T21:33:34.290Z,7.56
2023-03-20T21:36:00.522Z,7.59
2023-03-20T21:41:12.938Z,7.64
2023-03-20T21:43:39.206Z,7.66
2023-03-20T21:49:47.120Z,7.68
2023-03-20T22:01:00.802Z,7.64
2023-03-20T22:02:46.043Z,7.68
2023-03-20T22:08:48.609Z,7.63
2023-03-20T22:22:48.653Z,7.49
2023-03-20T22:33:58.441Z,7.43
2023-03-20T22:36:32.027Z,7.44
2023-03-20T22:44:47.749Z,7.36
2023-03-20T22:46:51.755Z,7.37
2023-03-20T22:49:18.009Z,7.38
2023-03-20T22:52:04.780Z,7.36
2023-03-20T22:54:30.405Z,7.36
2023-03-20T22:56:56.621Z,7.36
2023-03-20T22:59:22.841Z,7.40
2023-03-20T23:01:49.047Z,7.42
2023-03-20T23:04:15.278Z,7.39
2023-03-20T23:06:41.496Z,7.44
2023-03-20T23:09:15.054Z,7.40
2023-03-20T23:11:41.843Z,7.43
2023-03-20T23:14:18.256Z,7.40
2023-03-20T23:16:46.269Z,7.43
2023-03-20T23:19:12.534Z,7.46
2023-03-20T23:21:38.727Z,7.46
2023-03-20T23:24:05.017Z,7.47
2023-03-20T23:26:31.221Z,7.48
2023-03-20T23:28:57.443Z,7.50
2023-03-20T23:31:24.257Z,7.52
2023-03-20T23:33:54.342Z,7.52
2023-03-20T23:36:34.947Z,7.51
2023-03-20T23:39:01.970Z,7.50
2023-03-20T23:41:53.637Z,7.51
2023-03-20T23:44:14.365Z,7.54
2023-03-20T23:46:40.566Z,7.53
2023-03-20T23:49:06.788Z,7.52
2023-03-20T23:51:32.999Z,7.52
2023-03-20T23:53:59.219Z,7.52
2023-03-20T23:56:25.439Z,7.51
2023-03-20T23:58:59.660Z,7.54
